首页
METAR-TAF:

METAR-TAF

机场 :

蘇黎世機場

苏黎世, 瑞士

纬度: 47-29N, 经度: 008-32E, 海拔: 436米

当前天气观测

该预报发布于28分钟前的15:20 UTC
风速3节,风向多变
温度 20°C
湿度 64%
气压 1010 hPa
能见度10公里或以上
少量云层高于3000英尺
散云层高于4500英尺

METAR: LSZH 231520Z VRB03KT 9999 FEW030 SCT045 20/13 Q1010 NOSIG

时间: 17:48 (15:48 UTC)

预报

该预报发布于1小时和23分钟前的14:25 UTC
预报有效从23日的 15点(UTC)到 24日的 21点(UTC)
风速5节,风向西转西南
能见度10公里或以上
少量云层高于2000英尺
多云层高于5000英尺
短暂存在
从 23日的 18点(UTC)到 23日的 24点(UTC)
能见度10公里或以上
1500米以下无云,无积雨云
几率 40% :
短暂存在
从 24日的 00点(UTC)到 24日的 07点(UTC)
散云层高于4000英尺, 塔状积云.
阵雨
短暂存在
从 24日的 14点(UTC)到 24日的 21点(UTC)
能見度: 4500
多云层高于3000英尺, 塔状积云.
阵雨
几率 30% :
短暂存在
从 24日的 15点(UTC)到 24日的 19点(UTC)
能見度: 3000
散云层高于3000英尺, 积雨云.
雷暴, 雨

TAF: LSZH 231425Z 2315/2421 24005KT 9999 FEW020 BKN050 TX20/2315Z TN12/2401Z TX21/2414Z TEMPO 2318/2324 CAVOK PROB40 TEMPO 2400/2407 SHRA SCT040TCU TEMPO 2414/2421 4500 SHRA BKN030TCU PROB30 TEMPO 2415/2419 3000 TSRA SCT030CB

超过4000个机场的气象观测和天气预报(METAR&TAF报告)。

可查询的气象台以黄色和红色小点在地图上表示。

将鼠标移到小点上方,可查看气象台名称。

然后点击查看天气观测和预报。

如需切换地图:点击带黑十字的绿色按钮放大地图;点击带横线的绿色按钮缩小地图;或者点击绿色箭头查看邻近地区的地图。


METAR-TAF: